Time;durP1;ratioP1;P1;durP2;ratioP2;P2;SDS_P1;SDS_P2;PMS_P1;PMS_P2;Temp;Humidity;BMP_temperature;BMP_pressure;BME280_temperature;BME280_humidity;BME280_pressure;Samples;Min_cycle;Max_cycle;Signal;HPM_P1;HPM_P2
2021/05/07 00:00:34;;;;;;;1.17;1.16;;;;;;;6.87;87.40;98597.06;2001719;81;20325;-81
2021/05/07 00:03:37;;;;;;;0.70;0.70;;;;;;;6.87;87.40;98597.91;1999608;81;20341;-81
2021/05/07 00:06:39;;;;;;;0.75;0.75;;;;;;;6.89;87.40;98595.31;1998026;81;20381;-79
2021/05/07 00:09:40;;;;;;;0.70;0.70;;;;;;;6.88;87.33;98599.63;1998054;81;20379;-80
2021/05/07 00:12:42;;;;;;;0.70;0.70;;;;;;;6.86;87.32;98609.09;2000650;81;20479;-82
2021/05/07 00:15:45;;;;;;;1.30;0.70;;;;;;;6.85;87.42;98609.09;1999255;81;20952;-80
2021/05/07 00:18:46;;;;;;;0.82;0.77;;;;;;;6.87;87.31;98608.22;2002115;81;20350;-81
2021/05/07 00:21:48;;;;;;;0.70;0.70;;;;;;;6.90;87.16;98608.22;1999807;81;21290;-80
2021/05/07 00:24:50;;;;;;;0.81;0.81;;;;;;;6.90;87.04;98602.19;2001845;81;20309;-81
2021/05/07 00:28:03;;;;;;;0.70;0.70;;;;;;;6.91;86.94;98597.03;1998477;81;20331;-81
2021/05/07 00:31:06;;;;;;;0.91;0.80;;;;;;;6.91;86.86;98601.34;1999530;78;21846;-81
2021/05/07 00:34:07;;;;;;;0.80;0.80;;;;;;;6.89;86.88;98609.09;1998003;81;21132;-81
2021/05/07 00:37:09;;;;;;;0.84;0.71;;;;;;;6.90;86.85;98595.31;2001345;81;20322;-81
2021/05/07 00:40:11;;;;;;;0.81;0.80;;;;;;;6.89;86.71;98596.19;2002362;81;20333;-80
2021/05/07 00:43:13;;;;;;;0.81;0.80;;;;;;;6.89;86.76;98606.50;2001183;81;20321;-82
2021/05/07 00:46:15;;;;;;;0.80;0.80;;;;;;;6.86;86.71;98600.50;2003516;81;20314;-80
2021/05/07 00:49:17;;;;;;;1.14;0.89;;;;;;;6.83;86.73;98596.22;2002512;81;20314;-81
2021/05/07 00:52:18;;;;;;;1.69;0.80;;;;;;;6.81;86.89;98600.50;2003552;81;20339;-81
2021/05/07 00:55:21;;;;;;;0.85;0.85;;;;;;;6.80;86.99;98596.19;2002103;81;20500;-80
2021/05/07 00:58:23;;;;;;;1.55;0.80;;;;;;;6.77;86.96;98595.34;2003754;81;20317;-82
2021/05/07 01:01:24;;;;;;;2.34;0.99;;;;;;;6.75;86.96;98597.06;2005604;78;29228;-82
2021/05/07 01:04:26;;;;;;;1.24;0.90;;;;;;;6.74;86.93;98592.78;2004556;81;20321;-81
2021/05/07 01:07:28;;;;;;;0.80;0.80;;;;;;;6.72;87.14;98585.03;2006525;81;20767;-82
2021/05/07 01:10:30;;;;;;;0.77;0.77;;;;;;;6.71;86.88;98585.06;2006365;81;20348;-81
2021/05/07 01:13:32;;;;;;;0.94;0.94;;;;;;;6.70;86.87;98583.34;2005196;81;21171;-81
2021/05/07 01:16:35;;;;;;;1.30;0.90;;;;;;;6.69;86.81;98563.56;2005375;78;21932;-82
2021/05/07 01:19:36;;;;;;;0.85;0.85;;;;;;;6.61;86.66;98579.03;2007576;81;20826;-82
2021/05/07 01:22:48;;;;;;;0.80;0.80;;;;;;;6.58;86.85;98597.97;2004052;81;20314;-81
2021/05/07 01:25:50;;;;;;;1.40;0.80;;;;;;;6.57;87.08;98606.56;2004752;81;20343;-82
2021/05/07 01:28:52;;;;;;;0.84;0.84;;;;;;;6.57;87.15;98616.88;2005362;81;20440;-81
2021/05/07 01:31:56;;;;;;;0.88;0.81;;;;;;;6.55;87.03;98616.03;2004962;81;20375;-82
2021/05/07 01:34:58;;;;;;;0.75;0.75;;;;;;;6.55;87.22;98618.59;2009496;81;20313;-82
2021/05/07 01:38:02;;;;;;;0.71;0.71;;;;;;;6.55;87.21;98602.25;2006683;81;20329;-81
2021/05/07 01:41:04;;;;;;;0.99;0.95;;;;;;;6.55;87.17;98607.44;2005384;81;20318;-82
2021/05/07 01:44:06;;;;;;;1.30;0.95;;;;;;;6.54;87.12;98598.81;2009512;81;20329;-82
2021/05/07 01:47:07;;;;;;;0.98;0.90;;;;;;;6.50;87.02;98599.69;2007160;78;23248;-82
2021/05/07 01:50:12;;;;;;;0.96;0.96;;;;;;;6.49;87.06;98605.72;2004189;81;20941;-81
2021/05/07 01:53:15;;;;;;;1.01;0.76;;;;;;;6.49;86.96;98610.03;2003376;81;20345;-81
2021/05/07 01:56:17;;;;;;;0.90;0.90;;;;;;;6.47;87.07;98610.03;2004960;81;20739;-83
2021/05/07 01:59:18;;;;;;;0.79;0.79;;;;;;;6.43;87.07;98613.44;2006764;81;20341;-83
2021/05/07 02:02:20;;;;;;;2.24;0.84;;;;;;;6.43;87.13;98626.31;2006982;78;22356;-82
2021/05/07 02:05:26;;;;;;;2.05;1.89;;;;;;;6.44;87.13;98624.63;2008151;81;20318;-82
2021/05/07 02:08:28;;;;;;;1.00;1.00;;;;;;;6.45;87.07;98623.75;2007622;81;20327;-83
2021/05/07 02:11:30;;;;;;;0.94;0.94;;;;;;;6.43;87.20;98628.91;2009057;81;20318;-82
2021/05/07 02:14:35;;;;;;;0.90;0.90;;;;;;;6.41;87.16;98633.22;2009925;81;20326;-81
2021/05/07 02:17:37;;;;;;;0.82;0.82;;;;;;;6.41;87.18;98630.63;2011473;77;22278;-82
2021/05/07 02:20:40;;;;;;;0.98;0.90;;;;;;;6.42;87.14;98627.19;2013108;81;20329;-83
2021/05/07 02:23:41;;;;;;;1.10;1.00;;;;;;;6.41;87.09;98629.78;2007648;81;20486;-81
2021/05/07 02:26:43;;;;;;;1.39;1.20;;;;;;;6.41;87.09;98632.34;2006851;81;20329;-81
2021/05/07 02:29:45;;;;;;;1.04;0.95;;;;;;;6.40;87.00;98641.81;2007287;81;20329;-83
2021/05/07 02:32:46;;;;;;;2.16;1.31;;;;;;;6.40;86.91;98636.66;2005609;78;21785;-82
2021/05/07 02:35:48;;;;;;;1.41;1.20;;;;;;;6.37;86.86;98641.81;2004387;81;21117;-80
2021/05/07 02:38:50;;;;;;;1.64;1.06;;;;;;;6.36;86.94;98642.66;2000589;81;20326;-81
2021/05/07 02:41:51;;;;;;;1.10;1.10;;;;;;;6.34;87.03;98641.81;2005292;81;21255;-82
2021/05/07 02:44:53;;;;;;;1.36;1.27;;;;;;;6.35;87.08;98640.97;2006430;81;20318;-82
2021/05/07 02:47:54;;;;;;;2.88;1.36;;;;;;;6.35;87.18;98646.13;2005545;78;25450;-81
2021/05/07 02:50:56;;;;;;;1.01;0.95;;;;;;;6.36;87.42;98647.81;2005656;81;20314;-81
2021/05/07 02:53:58;;;;;;;1.70;1.09;;;;;;;6.35;87.53;98644.41;2006103;81;20329;-81
2021/05/07 02:57:00;;;;;;;2.31;1.06;;;;;;;6.40;87.49;98656.41;2006321;81;20355;-81
2021/05/07 03:00:04;;;;;;;1.02;1.02;;;;;;;6.38;87.53;98661.56;2012591;80;20337;-84
2021/05/07 03:03:06;;;;;;;1.52;1.16;;;;;;;6.39;87.68;98670.16;2011382;78;31174;-83
2021/05/07 03:06:08;;;;;;;1.24;1.14;;;;;;;6.40;87.91;98674.47;2009229;81;20351;-83
2021/05/07 03:09:09;;;;;;;1.33;1.23;;;;;;;6.40;87.91;98685.63;2010524;81;20365;-81
2021/05/07 03:12:11;;;;;;;1.54;1.44;;;;;;;6.42;88.06;98691.66;2006171;81;20314;-82
2021/05/07 03:15:13;;;;;;;1.48;1.21;;;;;;;6.45;88.07;98694.22;2008272;78;22501;-81
2021/05/07 03:18:15;;;;;;;1.56;1.40;;;;;;;6.45;87.95;98691.66;2003619;81;21067;-83
2021/05/07 03:21:18;;;;;;;1.50;1.40;;;;;;;6.44;88.02;98701.97;2005186;81;20310;-82
2021/05/07 03:24:19;;;;;;;2.29;1.40;;;;;;;6.45;88.21;98706.25;2006238;81;20363;-82
2021/05/07 03:27:21;;;;;;;1.46;1.36;;;;;;;6.47;88.05;98710.59;2006514;81;20321;-83
2021/05/07 03:30:23;;;;;;;1.49;1.39;;;;;;;6.46;87.81;98714.00;2006921;81;20474;-83
2021/05/07 03:33:24;;;;;;;1.50;1.40;;;;;;;6.45;87.85;98708.84;2005208;81;20353;-82
2021/05/07 03:36:26;;;;;;;1.56;1.46;;;;;;;6.46;87.91;98718.28;2004932;81;20359;-82
2021/05/07 03:39:28;;;;;;;1.48;1.38;;;;;;;6.43;87.58;98731.19;2005853;81;20792;-82
2021/05/07 03:42:31;;;;;;;2.67;1.51;;;;;;;6.38;87.41;98728.63;2005946;81;20947;-82
2021/05/07 03:45:33;;;;;;;1.70;1.60;;;;;;;6.31;86.96;98738.06;2006857;78;22000;-82
2021/05/07 03:48:34;;;;;;;1.73;1.63;;;;;;;6.28;86.74;98739.75;2007050;81;20349;-82
2021/05/07 03:51:36;;;;;;;2.54;1.64;;;;;;;6.15;86.32;98749.19;2005708;81;20313;-83
2021/05/07 03:54:38;;;;;;;2.25;1.50;;;;;;;6.09;86.16;98748.28;2008107;81;20333;-81
2021/05/07 03:57:40;;;;;;;1.48;1.38;;;;;;;6.05;85.91;98765.47;2005770;81;20356;-82
2021/05/07 04:00:42;;;;;;;1.49;1.38;;;;;;;6.00;85.85;98762.03;2005095;78;26512;-81
2021/05/07 04:03:43;;;;;;;1.65;1.23;;;;;;;5.96;85.95;98773.19;2004308;81;20400;-82
2021/05/07 04:06:45;;;;;;;1.65;1.55;;;;;;;5.90;85.74;98771.41;2004196;81;20351;-82
2021/05/07 04:10:14;;;;;;;2.35;1.83;;;;;;;5.88;85.84;98777.41;2005239;81;21008;-81
2021/05/07 04:16:36;;;;;;;1.40;1.30;;;;;;;5.79;85.67;98785.97;2004292;77;21141;-82
2021/05/07 04:19:38;;;;;;;1.75;1.65;;;;;;;5.75;85.65;98794.53;2002685;80;20355;-82
2021/05/07 04:22:39;;;;;;;2.05;1.85;;;;;;;5.72;85.51;98797.06;2002331;81;21249;-82
2021/05/07 04:25:41;;;;;;;2.16;1.55;;;;;;;5.67;85.37;98802.19;2006650;81;20359;-82
2021/05/07 04:28:43;;;;;;;1.77;1.67;;;;;;;5.62;85.25;98801.31;2005497;81;20339;-81
2021/05/07 04:31:47;;;;;;;2.05;1.91;;;;;;;5.58;85.31;98812.47;2001404;81;20305;-80
2021/05/07 04:34:48;;;;;;;2.10;2.00;;;;;;;5.58;85.20;98814.19;2002186;81;20434;-81
2021/05/07 04:37:50;;;;;;;1.80;1.70;;;;;;;5.53;85.14;98818.41;2002921;81;20321;-81
2021/05/07 04:40:51;;;;;;;1.74;1.64;;;;;;;5.51;85.25;98825.28;2000514;81;20349;-81
2021/05/07 04:43:53;;;;;;;1.79;1.69;;;;;;;5.44;85.08;98821.81;2001253;81;20399;-81
2021/05/07 04:46:55;;;;;;;2.63;1.90;;;;;;;5.40;85.33;98826.06;2001263;80;20910;-81
2021/05/07 04:49:56;;;;;;;4.18;1.99;;;;;;;5.40;85.30;98840.66;2000540;81;20820;-82
2021/05/07 04:52:58;;;;;;;1.80;1.70;;;;;;;5.39;85.19;98836.38;2002744;81;21081;-81
2021/05/07 04:56:00;;;;;;;1.91;1.81;;;;;;;5.36;85.30;98836.31;2001583;81;20330;-80
2021/05/07 04:59:02;;;;;;;2.03;1.69;;;;;;;5.25;85.09;98846.53;1999555;81;20337;-80
2021/05/07 05:02:03;;;;;;;1.83;1.73;;;;;;;5.23;85.42;98852.53;1997043;78;20359;-80
2021/05/07 05:05:06;;;;;;;1.52;1.42;;;;;;;5.36;85.39;98856.91;2001126;81;20337;-81
2021/05/07 05:08:08;;;;;;;2.61;1.70;;;;;;;5.47;85.32;98863.00;2000600;81;20689;-81
2021/05/07 05:11:10;;;;;;;1.77;1.63;;;;;;;5.47;85.09;98868.16;2002267;81;20305;-80
2021/05/07 05:14:11;;;;;;;2.34;1.80;;;;;;;5.50;85.23;98869.91;1999678;81;20335;-80
2021/05/07 05:17:13;;;;;;;2.14;1.58;;;;;;;5.52;85.19;98870.75;1998164;77;24408;-81
2021/05/07 05:20:15;;;;;;;1.85;1.59;;;;;;;5.61;85.35;98879.44;1998251;81;20317;-79
2021/05/07 05:23:17;;;;;;;1.89;1.79;;;;;;;5.71;85.37;98886.34;1998581;81;20373;-80
2021/05/07 05:26:18;;;;;;;2.85;2.00;;;;;;;5.84;85.44;98883.88;2000470;81;20322;-79
2021/05/07 05:29:20;;;;;;;2.15;2.03;;;;;;;6.01;85.21;98890.00;1998834;81;21198;-80
2021/05/07 05:32:26;;;;;;;3.40;2.00;;;;;;;6.19;84.81;98899.56;1999920;78;25797;-81
2021/05/07 05:35:29;;;;;;;2.89;2.03;;;;;;;6.83;83.53;98902.41;2000830;81;20321;-78
2021/05/07 05:38:31;;;;;;;2.41;1.77;;;;;;;7.49;80.14;98908.50;1998540;81;20313;-77
2021/05/07 05:41:32;;;;;;;1.91;1.67;;;;;;;7.75;78.63;98919.69;1999225;81;20218;-78
2021/05/07 05:44:34;;;;;;;1.90;1.80;;;;;;;8.10;77.11;98911.03;1999171;81;20178;-84
2021/05/07 05:47:35;;;;;;;2.71;2.08;;;;;;;8.51;75.08;98925.59;2001026;78;23681;-78
2021/05/07 05:50:39;;;;;;;2.25;2.05;;;;;;;8.88;72.91;98929.75;1999084;81;20174;-79
2021/05/07 05:53:40;;;;;;;3.10;1.84;;;;;;;9.13;71.23;98933.03;1999882;81;20253;-78
2021/05/07 05:56:42;;;;;;;3.35;1.95;;;;;;;9.22;69.75;98939.91;1998426;81;20291;-77
2021/05/07 05:59:44;;;;;;;5.14;2.08;;;;;;;9.36;69.36;98945.88;2000515;81;20678;-77
2021/05/07 06:02:45;;;;;;;3.14;1.88;;;;;;;9.65;68.76;98948.22;1999611;78;26224;-79
2021/05/07 06:05:47;;;;;;;2.60;1.95;;;;;;;9.82;67.38;98948.09;1998609;81;20186;-78
2021/05/07 06:08:49;;;;;;;2.26;1.70;;;;;;;9.97;66.44;98953.16;1998337;81;20192;-81
2021/05/07 06:11:50;;;;;;;3.65;2.17;;;;;;;10.24;65.87;98959.84;2000691;81;20259;-78
2021/05/07 06:14:52;;;;;;;2.40;1.95;;;;;;;10.42;65.38;98957.06;2001774;81;20706;-77
2021/05/07 06:17:54;;;;;;;2.42;2.22;;;;;;;10.75;63.74;98953.19;1999389;78;20614;-81
2021/05/07 06:20:56;;;;;;;2.75;2.30;;;;;;;11.10;62.38;98957.09;1999386;81;20732;-77
2021/05/07 06:23:58;;;;;;;2.34;2.14;;;;;;;11.32;60.98;98952.47;1999396;81;20395;-81
2021/05/07 06:26:59;;;;;;;2.75;2.49;;;;;;;11.59;60.49;98957.25;2000031;81;20206;-77
2021/05/07 06:30:04;;;;;;;3.55;2.41;;;;;;;11.68;59.77;98962.31;2004743;81;20203;-83
2021/05/07 06:33:09;;;;;;;4.81;2.61;;;;;;;11.54;59.71;98963.41;2003097;78;25437;-78
2021/05/07 06:36:12;;;;;;;3.85;2.47;;;;;;;11.52;59.26;98971.22;1998882;81;20309;-81
2021/05/07 06:39:14;;;;;;;2.64;2.44;;;;;;;11.49;59.74;98976.47;1999547;81;20654;-80
2021/05/07 06:42:16;;;;;;;2.84;2.51;;;;;;;11.23;60.09;98989.84;1999608;81;20868;-81
2021/05/07 06:45:18;;;;;;;2.78;2.44;;;;;;;11.19;60.88;98988.16;1998973;77;23185;-80
2021/05/07 06:48:20;;;;;;;3.72;2.90;;;;;;;11.00;61.73;98994.47;2001543;81;20218;-82
2021/05/07 06:51:21;;;;;;;3.22;2.45;;;;;;;10.63;60.84;99002.69;1999853;81;20712;-81
2021/05/07 06:54:27;;;;;;;3.25;2.33;;;;;;;10.20;62.28;99008.25;2000693;81;20299;-81
2021/05/07 06:57:29;;;;;;;4.82;2.95;;;;;;;10.27;62.79;99011.72;1998775;81;20214;-77
2021/05/07 07:00:32;;;;;;;2.70;2.50;;;;;;;10.78;62.35;99015.53;1996465;78;20206;-76
2021/05/07 07:03:33;;;;;;;2.40;2.20;;;;;;;10.96;60.64;99016.19;1999650;81;20232;-76
2021/05/07 07:06:35;;;;;;;4.39;2.34;;;;;;;11.31;60.43;99011.41;1998165;81;20357;-79
2021/05/07 07:09:37;;;;;;;3.10;2.59;;;;;;;11.71;58.94;99013.41;2002733;81;20280;-82
2021/05/07 07:12:38;;;;;;;3.39;2.06;;;;;;;11.96;56.85;99022.59;2008151;81;20564;-79
2021/05/07 07:15:40;;;;;;;2.84;2.20;;;;;;;11.93;57.83;99026.97;2003789;77;20190;-81
2021/05/07 07:18:42;;;;;;;2.20;2.06;;;;;;;12.00;56.99;99033.78;2004932;81;20184;-83
2021/05/07 07:21:44;;;;;;;4.19;1.84;;;;;;;12.02;55.85;99027.69;2006301;81;20203;-81
2021/05/07 07:24:47;;;;;;;3.31;2.20;;;;;;;12.22;54.66;99034.34;2003672;81;20204;-81
2021/05/07 07:27:49;;;;;;;2.63;1.90;;;;;;;12.31;53.39;99040.22;2002617;81;20243;-81
2021/05/07 07:30:51;;;;;;;2.69;2.01;;;;;;;12.42;53.35;99042.66;1997900;81;20797;-80
2021/05/07 07:33:53;;;;;;;2.09;1.96;;;;;;;12.67;53.61;99043.06;1998770;81;20190;-80
2021/05/07 07:36:54;;;;;;;2.58;1.88;;;;;;;12.80;52.12;99044.56;1998683;81;20580;-80
2021/05/07 07:39:56;;;;;;;3.81;1.84;;;;;;;12.88;51.13;99047.00;1998808;81;20201;-80
2021/05/07 07:42:58;;;;;;;2.22;2.03;;;;;;;12.94;49.82;99047.75;1999770;81;20641;-80
2021/05/07 07:46:00;;;;;;;2.83;1.85;;;;;;;13.05;51.35;99055.34;1997857;77;20235;-80
2021/05/07 07:49:03;;;;;;;2.28;1.98;;;;;;;13.19;49.70;99055.13;2006770;81;20167;-82
2021/05/07 07:52:08;;;;;;;2.16;1.65;;;;;;;13.29;49.86;99060.13;2002936;81;20486;-81
2021/05/07 07:55:10;;;;;;;2.72;1.75;;;;;;;13.33;49.11;99065.28;2002791;81;20206;-81
2021/05/07 07:58:12;;;;;;;6.26;2.46;;;;;;;13.41;47.82;99064.22;2004862;81;20220;-80
2021/05/07 08:01:13;;;;;;;4.72;1.96;;;;;;;13.52;48.59;99064.84;2002748;81;20573;-81
2021/05/07 08:04:17;;;;;;;2.34;2.14;;;;;;;13.49;47.94;99069.28;2004880;81;20182;-81
2021/05/07 08:07:19;;;;;;;2.36;1.92;;;;;;;13.58;47.64;99067.31;2003841;81;20475;-81
2021/05/07 08:10:22;;;;;;;5.24;2.86;;;;;;;13.80;47.14;99075.50;2004597;81;20208;-82
2021/05/07 08:13:23;;;;;;;2.10;2.00;;;;;;;13.80;45.85;99082.50;2000056;81;20232;-82
2021/05/07 08:16:25;;;;;;;3.33;2.26;;;;;;;13.97;46.29;99093.41;2000279;81;20190;-76
2021/05/07 08:19:27;;;;;;;2.33;2.13;;;;;;;14.02;46.25;99094.19;1996930;81;20209;-76
2021/05/07 08:22:28;;;;;;;2.49;2.28;;;;;;;14.19;47.52;99107.69;1997252;81;20186;-76
2021/05/07 08:25:30;;;;;;;2.38;2.14;;;;;;;14.26;44.76;99102.31;1997665;81;20242;-76
2021/05/07 08:28:33;;;;;;;2.76;2.08;;;;;;;14.24;44.00;99102.38;1997060;81;20236;-77
2021/05/07 08:31:35;;;;;;;4.76;2.04;;;;;;;14.32;46.17;99116.09;1996438;77;20433;-77
2021/05/07 08:34:39;;;;;;;2.20;2.00;;;;;;;14.35;44.27;99123.84;1996915;81;20177;-76
2021/05/07 08:37:44;;;;;;;2.76;2.05;;;;;;;14.29;41.78;99123.13;1996679;81;20219;-76
2021/05/07 08:40:45;;;;;;;3.78;1.77;;;;;;;14.23;42.85;99126.75;1997099;81;20182;-77
2021/05/07 08:43:48;;;;;;;3.14;2.13;;;;;;;14.21;43.88;99129.41;1997605;81;20650;-77
2021/05/07 08:46:50;;;;;;;1.95;1.85;;;;;;;14.12;42.40;99137.44;1995984;78;20225;-76
2021/05/07 08:49:52;;;;;;;2.83;2.30;;;;;;;14.29;43.08;99136.19;1997432;81;20178;-76
2021/05/07 08:52:54;;;;;;;2.00;1.89;;;;;;;14.55;42.18;99136.47;1996744;81;20386;-76
2021/05/07 08:55:56;;;;;;;3.95;2.13;;;;;;;14.80;43.46;99126.25;1996686;81;20749;-76
2021/05/07 08:58:57;;;;;;;3.74;2.16;;;;;;;14.73;41.01;99143.00;1996546;81;21036;-76
2021/05/07 09:01:59;;;;;;;3.22;2.55;;;;;;;14.44;42.83;99149.78;1996184;78;28565;-76
2021/05/07 09:05:02;;;;;;;2.11;2.01;;;;;;;14.13;41.11;99140.91;1997602;81;20305;-76
2021/05/07 09:08:05;;;;;;;1.92;1.81;;;;;;;13.75;43.26;99133.94;1997243;81;20620;-76
2021/05/07 09:11:06;;;;;;;1.85;1.74;;;;;;;13.43;44.16;99145.88;1996574;81;20162;-77
2021/05/07 09:14:08;;;;;;;3.29;1.61;;;;;;;13.53;44.70;99130.91;1997509;81;20202;-76
2021/05/07 09:17:10;;;;;;;1.88;1.29;;;;;;;13.51;43.41;99145.75;1995262;79;20903;-77
2021/05/07 09:20:14;;;;;;;2.10;1.06;;;;;;;13.24;42.90;99154.94;1996919;81;20613;-77
2021/05/07 09:23:17;;;;;;;3.76;2.16;;;;;;;12.86;43.60;99156.47;1997515;81;20331;-77
2021/05/07 09:26:19;;;;;;;1.21;1.06;;;;;;;12.73;43.84;99151.50;1996567;81;20194;-76
2021/05/07 09:29:23;;;;;;;1.46;1.10;;;;;;;12.50;43.84;99160.56;1997219;81;20712;-77
2021/05/07 09:32:35;;;;;;;1.35;1.11;;;;;;;12.24;44.28;99167.91;1995954;78;21736;-77
2021/05/07 09:35:38;;;;;;;2.41;1.14;;;;;;;11.78;45.82;99184.13;1996585;81;20178;-76
2021/05/07 09:38:39;;;;;;;2.55;1.39;;;;;;;11.50;47.83;99194.00;1996780;81;20196;-77
2021/05/07 09:41:44;;;;;;;4.63;1.09;;;;;;;11.20;48.75;99201.25;1997470;81;20202;-77
2021/05/07 09:44:45;;;;;;;1.45;1.31;;;;;;;11.36;49.80;99199.34;1997138;81;20183;-77
2021/05/07 09:47:48;;;;;;;2.78;1.50;;;;;;;12.00;50.37;99206.41;1996459;77;22947;-77
2021/05/07 09:50:55;;;;;;;2.53;1.46;;;;;;;12.68;48.61;99217.56;1997595;81;20200;-78
2021/05/07 09:54:06;;;;;;;2.09;0.90;;;;;;;13.35;46.42;99209.53;1997180;81;20206;-77
2021/05/07 09:57:09;;;;;;;1.86;0.69;;;;;;;13.68;45.49;99201.06;1996581;81;20291;-77
2021/05/07 10:00:11;;;;;;;1.44;0.73;;;;;;;13.92;45.56;99210.13;1997191;81;20194;-78
2021/05/07 10:03:12;;;;;;;2.66;1.14;;;;;;;13.95;41.15;99215.28;1996847;78;22686;-78
2021/05/07 10:06:17;;;;;;;2.29;0.82;;;;;;;13.56;40.17;99219.53;1996854;81;20609;-77
2021/05/07 10:09:25;;;;;;;3.26;0.70;;;;;;;13.65;41.26;99214.16;2000688;81;20200;-78
2021/05/07 10:12:28;;;;;;;1.41;0.56;;;;;;;13.89;40.53;99246.72;1997900;81;20202;-76
2021/05/07 10:15:32;;;;;;;1.42;0.60;;;;;;;14.01;41.16;99222.13;1996885;78;20259;-78
2021/05/07 10:18:37;;;;;;;4.59;0.60;;;;;;;14.52;38.50;99227.97;1997805;81;20969;-79
2021/05/07 10:21:44;;;;;;;1.50;0.60;;;;;;;14.73;37.17;99243.19;1997304;81;20186;-79
2021/05/07 10:24:48;;;;;;;1.08;0.70;;;;;;;14.93;38.06;99228.78;1997165;81;20194;-78
2021/05/07 10:27:53;;;;;;;1.19;0.65;;;;;;;15.02;37.56;99255.53;1996849;81;20178;-78
2021/05/07 10:31:21;;;;;;;2.72;0.63;;;;;;;15.29;35.74;99264.47;1996657;78;21988;-77
2021/05/07 10:34:25;;;;;;;1.39;0.72;;;;;;;15.48;34.13;99270.06;1996898;81;20676;-76
2021/05/07 10:37:45;;;;;;;3.40;0.90;;;;;;;15.58;34.39;99260.19;1997064;81;20200;-77
2021/05/07 10:40:50;;;;;;;1.23;0.60;;;;;;;15.27;34.15;99274.09;1997163;81;20292;-77
2021/05/07 10:43:58;;;;;;;3.29;0.75;;;;;;;15.07;35.47;99282.41;1996828;81;20656;-77
2021/05/07 10:47:10;;;;;;;1.74;0.90;;;;;;;15.38;39.15;99286.91;1995776;78;22688;-77
2021/05/07 10:50:16;;;;;;;1.79;0.95;;;;;;;15.77;39.32;99278.91;1997792;81;20312;-77
2021/05/07 10:53:32;;;;;;;2.42;1.14;;;;;;;16.29;38.10;99275.69;1996562;81;20210;-78
2021/05/07 10:56:39;;;;;;;0.98;0.88;;;;;;;16.49;37.20;99281.19;1997677;81;20194;-77
2021/05/07 10:59:54;;;;;;;3.06;1.13;;;;;;;16.10;36.47;99303.31;1997439;81;20219;-78
2021/05/07 11:02:56;;;;;;;2.26;1.10;;;;;;;15.49;36.00;99286.63;1996142;81;21649;-78
2021/05/07 11:05:59;;;;;;;1.34;1.10;;;;;;;15.57;36.85;99303.84;1996501;81;20218;-78
2021/05/07 11:09:16;;;;;;;1.66;0.96;;;;;;;15.78;36.88;99301.59;1996925;81;20369;-78
2021/05/07 11:12:21;;;;;;;4.03;1.42;;;;;;;15.33;38.58;99310.56;1997564;81;20200;-78
2021/05/07 11:15:24;;;;;;;1.02;0.93;;;;;;;15.32;37.89;99302.75;1993326;80;20178;-78
2021/05/07 11:18:34;;;;;;;1.73;0.91;;;;;;;15.90;38.87;99311.72;1997862;80;20210;-78
2021/05/07 11:21:37;;;;;;;4.14;1.16;;;;;;;16.21;36.84;99306.50;1996989;81;20208;-78
2021/05/07 11:24:41;;;;;;;2.65;0.86;;;;;;;16.30;34.37;99309.69;1997748;81;20677;-78
2021/05/07 11:27:46;;;;;;;2.01;0.99;;;;;;;15.75;34.97;99323.47;1995000;81;20735;-78
2021/05/07 11:30:55;;;;;;;0.96;0.88;;;;;;;15.68;37.17;99321.94;1994423;78;124675;-78
2021/05/07 11:33:57;;;;;;;3.86;1.40;;;;;;;15.26;35.58;99318.59;1996855;81;20183;-78
2021/05/07 11:37:01;;;;;;;1.14;0.91;;;;;;;15.09;37.74;99319.03;1996825;81;21072;-78
2021/05/07 11:40:07;;;;;;;1.70;1.48;;;;;;;15.47;38.71;99330.31;1997382;81;20735;-78
2021/05/07 11:43:13;;;;;;;2.41;1.00;;;;;;;15.86;38.22;99315.34;1997450;81;20762;-78
2021/05/07 11:46:15;;;;;;;2.94;1.10;;;;;;;16.09;35.45;99322.56;1995067;78;98774;-78
2021/05/07 11:49:18;;;;;;;1.25;0.81;;;;;;;16.56;35.12;99326.44;1997064;81;20241;-78
2021/05/07 11:52:41;;;;;;;2.92;1.19;;;;;;;16.99;35.02;99327.78;1996944;81;20170;-78
2021/05/07 11:55:45;;;;;;;1.06;0.90;;;;;;;17.20;34.31;99332.34;1996933;81;21124;-78
2021/05/07 11:58:53;;;;;;;2.72;0.88;;;;;;;16.90;33.27;99334.19;1997052;81;20234;-78
2021/05/07 12:02:05;;;;;;;1.10;0.84;;;;;;;16.56;34.97;99323.81;1995996;78;20626;-78
2021/05/07 12:05:07;;;;;;;2.35;0.80;;;;;;;16.22;34.49;99319.56;1997032;81;20571;-78
2021/05/07 12:08:10;;;;;;;1.45;0.71;;;;;;;15.93;34.79;99332.59;1998093;81;20299;-77
2021/05/07 12:11:14;;;;;;;1.09;0.60;;;;;;;16.05;34.58;99337.50;1997109;81;20206;-77
2021/05/07 12:14:15;;;;;;;1.74;0.61;;;;;;;16.22;33.18;99334.41;1998142;81;20234;-78
2021/05/07 12:17:23;;;;;;;4.29;1.09;;;;;;;16.79;32.35;99333.63;1986236;81;979231;-78
2021/05/07 12:20:27;;;;;;;0.94;0.50;;;;;;;17.08;32.20;99336.22;1997962;81;20230;-80
2021/05/07 12:23:44;;;;;;;1.09;0.52;;;;;;;17.34;31.22;99347.66;1997626;81;20220;-78
2021/05/07 12:26:47;;;;;;;4.00;0.80;;;;;;;17.52;29.81;99326.03;1997443;81;20210;-79
2021/05/07 12:29:49;;;;;;;1.01;0.74;;;;;;;17.72;30.53;99328.00;1999399;81;20192;-79
2021/05/07 12:33:06;;;;;;;0.85;0.60;;;;;;;17.75;29.76;99339.25;1996968;78;21258;-79
2021/05/07 12:36:15;;;;;;;1.27;0.70;;;;;;;17.46;29.17;99355.13;1998348;81;20228;-78
2021/05/07 12:39:18;;;;;;;0.50;0.50;;;;;;;17.33;30.55;99354.66;1996921;81;20186;-78
2021/05/07 12:42:19;;;;;;;0.51;0.51;;;;;;;16.62;30.21;99368.19;1996915;81;20203;-78
2021/05/07 12:45:22;;;;;;;0.95;0.82;;;;;;;16.66;31.17;99358.47;1995993;81;22044;-79
2021/05/07 12:48:29;;;;;;;0.90;0.40;;;;;;;17.04;32.37;99381.81;1997976;81;20170;-81
2021/05/07 12:51:31;;;;;;;1.34;0.52;;;;;;;17.36;31.23;99377.31;1997108;81;21119;-79
2021/05/07 12:54:33;;;;;;;1.69;0.60;;;;;;;17.44;30.36;99377.94;1996694;81;20175;-77
2021/05/07 12:57:43;;;;;;;0.54;0.50;;;;;;;17.37;30.81;99382.50;1997266;81;20769;-76
2021/05/07 13:00:45;;;;;;;1.70;0.50;;;;;;;17.40;30.19;99386.81;1986187;81;993164;-75
2021/05/07 13:03:47;;;;;;;1.04;0.50;;;;;;;16.99;31.69;99390.72;1996676;81;20182;-77
2021/05/07 13:06:49;;;;;;;4.20;0.63;;;;;;;16.60;31.38;99394.47;1996388;81;20527;-75
2021/05/07 13:09:51;;;;;;;3.67;0.60;;;;;;;16.45;32.73;99399.28;1996848;81;20179;-76
2021/05/07 13:12:54;;;;;;;1.15;0.51;;;;;;;16.58;31.53;99396.28;1996996;81;20202;-78
2021/05/07 13:15:56;;;;;;;0.65;0.56;;;;;;;16.82;30.93;99402.59;1997460;78;20358;-77
2021/05/07 13:18:58;;;;;;;1.69;0.50;;;;;;;17.06;31.18;99393.13;1998997;81;20235;-73
2021/05/07 13:22:00;;;;;;;0.76;0.59;;;;;;;17.12;30.65;99402.56;1998431;81;20203;-80
2021/05/07 13:25:02;;;;;;;0.96;0.59;;;;;;;16.82;31.01;99397.34;1998183;81;20210;-79
2021/05/07 13:28:04;;;;;;;3.08;0.70;;;;;;;16.41;31.18;99405.50;1998425;81;20202;-78
2021/05/07 13:31:23;;;;;;;8.66;1.14;;;;;;;16.73;31.28;99402.00;1988425;81;970082;-80
2021/05/07 13:34:35;;;;;;;3.04;0.59;;;;;;;16.92;29.45;99404.03;1999395;81;20707;-80
2021/05/07 13:38:11;;;;;;;0.90;0.59;;;;;;;17.26;29.07;99407.41;1996733;81;20183;-80
2021/05/07 13:41:43;;;;;;;1.51;0.50;;;;;;;17.48;26.91;99413.69;1999157;81;20205;-81
2021/05/07 13:45:17;;;;;;;;;;;;;;;17.65;28.97;99426.28;1996538;81;20278;-81
2021/05/07 13:48:35;;;;;;;;;;;;;;;;;;;;;
2021/05/07 13:52:06;;;;;;;1.29;0.50;;;;;;;17.77;29.84;99428.50;1982235;81;20211;-80
2021/05/07 13:55:50;;;;;;;0.47;0.40;;;;;;;17.75;28.72;99420.69;1985227;81;20344;-80
2021/05/07 13:59:42;;;;;;;2.97;0.50;;;;;;;17.75;28.92;99428.56;1983887;81;20341;-80
2021/05/07 14:03:39;;;;;;;1.25;0.55;;;;;;;17.74;28.41;99423.34;1975606;70;1003492;-80
2021/05/07 14:07:47;;;;;;;3.39;0.51;;;;;;;17.76;27.38;99424.16;2008597;80;20246;-79
2021/05/07 14:11:50;;;;;;;0.80;0.49;;;;;;;17.56;29.27;99422.16;2003870;80;20225;-78
2021/05/07 14:15:43;;;;;;;1.30;0.40;;;;;;;17.57;28.88;99410.75;2007258;80;20185;-78
2021/05/07 14:19:20;;;;;;;9.50;0.90;;;;;;;17.76;28.34;99419.78;2007922;80;20189;-78
2021/05/07 14:22:53;;;;;;;;;;;;;;;;;;;;;
2021/05/07 14:26:55;;;;;;;2.55;0.60;;;;;;;17.86;29.14;99425.59;2007888;80;20922;-78
2021/05/07 14:31:00;;;;;;;0.52;0.50;;;;;;;17.85;29.36;99430.91;2007011;80;20178;-78
2021/05/07 14:34:12;;;;;;;0.69;0.45;;;;;;;17.97;28.97;99423.47;2003761;80;20294;-78
2021/05/07 14:46:09;;;;;;;1.46;0.40;;;;;;;18.06;28.16;99425.78;2000672;80;20262;-78
2021/05/07 14:49:25;;;;;;;1.73;0.40;;;;;;;17.47;27.98;99439.09;2002604;80;20207;-79
2021/05/07 14:57:04;;;;;;;1.05;0.60;;;;;;;16.58;30.22;99440.84;2011205;81;20339;-82